Terminal Aerodrome Forecast
Issued by NWS

Home | Current Version | Previous Version | Text Only | Print | Product List | Glossary On
Versions: 1 2 3 4 5 6 7 8 9 10 11 12 13 14 15 16 17 18 19 20 21 22 23 24 25 26 27 28
000
FTUS43 KIND 210520
TAFBMG
TAF
KBMG 210520Z 2106/2206 19005KT P6SM BKN035
     FM211600 19009KT P6SM SCT045 BKN120
     FM220000 16006KT P6SM SCT045 BKN090
      AMD LTD TO CLD VIS AND WIND TIL 211400=

USA.gov is the U.S. government's official web portal to all federal, state and local government web resources and services.